Guntersville

Latest Operating Information
WARNING! Water release schedules can change without notice due to unanticipated weather changes or power system requirements. Large amounts of water could be discharged at any time. Use caution! Obey all posted safety regulations and precautions!  Vital safety information.

Generation Releases

Caption
Day Time Period Generators
7/16/2018 midnight - midnight 2 or more

Observed Data

Caption
Day Time (Eastern) Reservoir Elevation (behind dam)* Tailwater Elevation (below dam)* Average Hourly Discharge*
7/14/2018 2 AM 594.92 556.33 12,046
7/14/2018 3 AM 594.94 556.33 12,046
7/14/2018 4 AM 594.87 556.35 12,096
7/14/2018 5 AM 594.83 556.35 12,132
7/14/2018 6 AM 594.78 556.38 12,037
7/14/2018 7 AM 594.69 556.78 19,990
7/14/2018 8 AM 594.65 556.78 21,047
7/14/2018 9 AM 594.61 556.88 21,274
7/14/2018 10 AM 594.62 556.81 21,574
7/14/2018 11 AM 594.65 556.78 21,455
7/14/2018 noon 594.67 556.78 21,634
7/14/2018 1 PM 594.67 556.76 21,558
7/14/2018 2 PM 594.66 556.75 21,606
7/14/2018 3 PM 594.62 556.72 21,658
7/14/2018 4 PM 594.57 556.55 21,680
7/14/2018 5 PM 594.65 556.62 22,459
7/14/2018 6 PM 594.68 556.73 22,413
7/14/2018 7 PM 594.74 556.78 22,391
7/14/2018 8 PM 594.76 556.78 22,498
7/14/2018 9 PM 594.75 556.69 22,570
7/14/2018 10 PM 594.79 556.68 22,755
7/14/2018 11 PM 594.78 556.65 22,729
7/14/2018 midnight 594.79 556.64 22,658
7/15/2018 1 AM 594.76 556.60 22,605
7/15/2018 2 AM 594.73 556.63 22,733
7/15/2018 3 AM 594.70 556.61 22,680
7/15/2018 4 AM 594.67 556.59 22,641
7/15/2018 5 AM 594.66 556.58 22,631
7/15/2018 6 AM 594.62 556.54 22,571
7/15/2018 7 AM 594.55 556.54 22,531
7/15/2018 8 AM 594.49 556.48 22,558
7/15/2018 9 AM 594.45 556.47 22,610
7/15/2018 10 AM 594.45 556.45 22,676
7/15/2018 11 AM 594.47 556.45 22,592
7/15/2018 noon 594.47 556.43 22,358
7/15/2018 1 PM 594.51 556.55 21,861
7/15/2018 2 PM 594.42 556.53 21,026
7/15/2018 3 PM 594.43 556.48 20,960
7/15/2018 4 PM 594.41 556.63 21,061
7/15/2018 5 PM 594.54 556.46 20,628
7/15/2018 6 PM 594.53 556.36 20,683
7/15/2018 7 PM 594.51 556.34 20,910
7/15/2018 8 PM 594.51 556.42 20,991
7/15/2018 9 PM 594.54 556.35 21,042
7/15/2018 10 PM 594.54 556.43 20,908
7/15/2018 11 PM 594.60 556.35 20,732
7/15/2018 midnight 594.57 556.38 20,646
7/16/2018 1 AM 594.60 556.37 20,581

Predicted Data

Caption
Day Average Inflow* Midnight Elevation* Average Outflow*
7/16/2018 29,798 594.68 22,550
7/17/2018 24,873 594.80 22,120
7/18/2018 27,253 594.80 26,585

*Elevations are in feet above sea level. Discharges are in cubic feet per second and are reported at the end of the hour.

Notes:

Water release schedules are updated periodically throughout the day. Next-day release schedules are usually available by 6 p.m. of the current day.

Observed water levels also are updated periodically throughout the day. Predicted water levels are updated at least once a day, by 1 p.m. Eastern time, and may be updated more frequently when conditions warrant.

Reservoir Information

Get the most up-to-date information for the reservoirs, including today’s lake levels, predicted elevations, planned releases, reservoir operating guides, ecological health ratings, fish survey results, recreation facilities and more.

 

 

Lake Info App

Want your lake info to go? Download the TVA Lake Info app, an easy-to-use resource for operating on and around reservoirs and dams in the TVA region. Available for iPhone and Android devices.